Mc Gee, Missouri
Current Conditions -  °F | °C
As of 6:53 AM on Saturday 20 Dec 2014 (Local Time) from KPOF Reporting Station
Overcast Overcast  
Wind Chill: 37°   Ceiling: 3000
Heat Index: 37°   Visibility: 8mi
Dew Point: 31°   Wind: 3mph
Humidity: 79%   Direction: 50°NE
Pressure: 30.28"   Gusts: NA
Location:  37.0751°N, 90.1947°W
Report Text: KPOF 201253Z AUTO 05003KT 8SM OVC030 03/M01 A3028 RMK AO2 SLP258 T00281006
Loading
Personal Weather Stations






























Interactive Weather Map New forecast layout! Learn more

10-Day Weather Forecast

Advertisements
Track Severe Weather on mobile